Terminal Aerodrome Forecast
Issued by NWS

Home | Current Version | Previous Version | Text Only | Print | Product List | Glossary On
Versions: 1 2 3 4 5 6 7 8 9 10 11 12 13 14 15 16 17 18 19 20 21
000
FTUS46 KOTX 232059 AAB
TAFCOE
TAF AMD
KCOE 232059Z 2321/2418 24012KT P6SM VCSH SCT045 BKN070
     FM240000 19008KT P6SM -SHRA BKN040 BKN080 OVC120
     FM240900 19007KT P6SM BKN020 OVC040=

USA.gov is the U.S. government's official web portal to all federal, state and local government web resources and services.